createdAt,value
2017-10-20T00:00:52.807Z,79.13
2017-10-20T00:01:52.807Z,79.52
2017-10-20T00:02:52.802Z,79.22
2017-10-20T00:03:52.800Z,79.13
2017-10-20T00:04:52.800Z,79.13
2017-10-20T00:05:52.800Z,79.13
2017-10-20T00:06:52.799Z,78.65
2017-10-20T00:07:52.798Z,78.55
2017-10-20T00:08:52.795Z,78.84
2017-10-20T00:09:52.794Z,78.75
2017-10-20T00:10:52.801Z,78.55
2017-10-20T00:11:52.798Z,78.84
2017-10-20T00:12:52.796Z,78.55
2017-10-20T00:13:52.796Z,78.94
2017-10-20T00:14:52.794Z,78.84
2017-10-20T00:15:52.795Z,78.65
2017-10-20T00:16:52.793Z,78.75
2017-10-20T00:17:52.791Z,78.75
2017-10-20T00:18:52.787Z,78.55
2017-10-20T00:19:52.787Z,78.27
2017-10-20T00:20:52.796Z,78.17
2017-10-20T00:21:52.784Z,77.59
2017-10-20T00:22:52.813Z,77.50
2017-10-20T00:23:52.782Z,77.59
2017-10-20T00:24:52.781Z,77.50
2017-10-20T00:25:52.779Z,77.40
2017-10-20T00:26:52.784Z,77.50
2017-10-20T00:27:52.783Z,77.11
2017-10-20T00:28:52.781Z,77.01
2017-10-20T00:29:52.781Z,77.50
2017-10-20T00:30:52.780Z,77.11
2017-10-20T00:31:52.779Z,77.31
2017-10-20T00:32:52.778Z,76.82
2017-10-20T00:33:52.776Z,76.73
2017-10-20T00:34:52.772Z,76.64
2017-10-20T00:35:52.772Z,77.01
2017-10-20T00:36:52.770Z,76.25
2017-10-20T00:37:52.769Z,76.29
2017-10-20T00:38:52.768Z,75.81
2017-10-20T00:39:52.768Z,76.06
2017-10-20T00:40:52.765Z,75.87
2017-10-20T00:41:52.764Z,75.90
2017-10-20T00:42:52.770Z,75.38
2017-10-20T00:43:52.768Z,75.96
2017-10-20T00:44:52.766Z,75.67
2017-10-20T00:45:52.767Z,76.00
2017-10-20T00:46:52.766Z,75.96
2017-10-20T00:47:52.764Z,75.77
2017-10-20T00:48:52.763Z,76.19
2017-10-20T00:49:52.762Z,76.25
2017-10-20T00:50:52.758Z,76.29
2017-10-20T00:51:52.756Z,76.15
2017-10-20T00:52:52.755Z,75.57
2017-10-20T00:53:52.755Z,75.96
2017-10-20T00:54:52.753Z,75.96
2017-10-20T00:55:52.754Z,76.15
2017-10-20T00:56:52.751Z,75.96
2017-10-20T00:57:52.751Z,76.34
2017-10-20T00:58:52.755Z,75.77
2017-10-20T00:59:52.753Z,75.96
2017-10-20T01:00:52.752Z,75.96
2017-10-20T01:01:52.752Z,75.96
2017-10-20T01:02:52.748Z,75.96
2017-10-20T01:03:52.746Z,75.96
2017-10-20T01:04:52.746Z,76.54
2017-10-20T01:05:52.745Z,76.54
2017-10-20T01:06:52.747Z,76.73
2017-10-20T01:07:52.747Z,76.92
2017-10-20T01:08:52.745Z,77.11
2017-10-20T01:09:52.745Z,76.73
2017-10-20T01:10:52.745Z,77.11
2017-10-20T01:11:52.742Z,77.78
2017-10-20T01:12:52.744Z,78.08
2017-10-20T01:13:52.740Z,78.75
2017-10-20T01:14:52.737Z,79.13
2017-10-20T01:15:52.737Z,80.09
2017-10-20T01:16:52.735Z,79.52
2017-10-20T01:17:52.734Z,79.09
2017-10-20T01:18:52.733Z,79.09
2017-10-20T01:19:52.733Z,79.09
2017-10-20T01:20:52.730Z,79.86
2017-10-20T01:21:52.730Z,79.09
2017-10-20T01:22:52.734Z,79.28
2017-10-20T01:23:52.734Z,79.76
2017-10-20T01:24:52.732Z,80.05
2017-10-20T01:25:52.730Z,79.86
2017-10-20T01:26:52.729Z,79.86
2017-10-20T01:27:52.728Z,79.96
2017-10-20T01:28:52.726Z,79.86
2017-10-20T01:29:52.725Z,79.96
2017-10-20T01:30:52.721Z,79.86
2017-10-20T01:31:52.720Z,79.28
2017-10-20T01:32:52.718Z,79.09
2017-10-20T01:33:52.717Z,79.38
2017-10-20T01:34:52.715Z,79.28
2017-10-20T01:35:52.714Z,79.38
2017-10-20T01:36:52.712Z,79.47
2017-10-20T01:37:52.712Z,79.67
2017-10-20T01:38:52.715Z,78.80
2017-10-20T01:39:52.714Z,78.70
2017-10-20T01:40:52.712Z,78.80
2017-10-20T01:41:52.711Z,78.61
2017-10-20T01:42:52.710Z,78.52
2017-10-20T01:43:52.711Z,78.70
2017-10-20T01:44:52.709Z,78.80
2017-10-20T01:45:52.708Z,78.32
2017-10-20T01:46:52.702Z,78.61
2017-10-20T01:47:52.702Z,78.52
2017-10-20T01:48:52.699Z,78.80
2017-10-20T01:49:52.698Z,78.23
2017-10-20T01:50:52.698Z,77.94
2017-10-20T01:51:52.695Z,77.75
2017-10-20T01:52:52.695Z,77.36
2017-10-20T01:53:52.723Z,76.79
2017-10-20T01:54:52.698Z,76.88
2017-10-20T01:55:52.696Z,77.26
2017-10-20T01:56:52.695Z,76.98
2017-10-20T01:57:52.701Z,76.88
2017-10-20T01:58:52.693Z,77.17
2017-10-20T01:59:52.692Z,77.36
2017-10-20T02:00:52.689Z,76.64
2017-10-20T02:01:52.688Z,76.79
2017-10-20T02:02:52.684Z,76.88
2017-10-20T02:03:52.685Z,76.12
2017-10-20T02:04:52.681Z,76.12
2017-10-20T02:05:52.681Z,75.92
2017-10-20T02:06:52.684Z,75.92
2017-10-20T02:07:52.682Z,76.21
2017-10-20T02:08:52.681Z,75.82
2017-10-20T02:09:52.681Z,75.25
2017-10-20T02:10:52.676Z,75.73
2017-10-20T02:11:52.675Z,75.35
2017-10-20T02:12:52.672Z,75.29
2017-10-20T02:13:52.672Z,75.06
2017-10-20T02:14:52.697Z,75.25
2017-10-20T02:15:52.671Z,75.15
2017-10-20T02:16:52.668Z,75.92
2017-10-20T02:17:52.667Z,77.26
2017-10-20T02:18:52.670Z,77.65
2017-10-20T02:19:52.670Z,78.70
2017-10-20T02:20:52.667Z,79.96
2017-10-20T02:21:52.667Z,79.86
2017-10-20T02:22:52.667Z,79.47
2017-10-20T02:23:52.666Z,79.86
2017-10-20T02:24:52.662Z,80.82
2017-10-20T02:25:52.662Z,80.58
2017-10-20T02:26:52.663Z,81.45
2017-10-20T02:27:52.659Z,81.07
2017-10-20T02:28:52.653Z,80.97
2017-10-20T02:29:52.652Z,82.31
2017-10-20T02:30:52.652Z,82.60
2017-10-20T02:31:52.650Z,83.27
2017-10-20T02:32:52.647Z,83.85
2017-10-20T02:33:52.647Z,83.37
2017-10-20T02:34:52.649Z,82.60
2017-10-20T02:35:52.648Z,82.85
2017-10-20T02:36:52.645Z,82.03
2017-10-20T02:37:52.643Z,81.93
2017-10-20T02:38:52.641Z,82.41
2017-10-20T02:39:52.642Z,81.26
2017-10-20T02:40:52.638Z,81.45
2017-10-20T02:41:52.637Z,82.70
2017-10-20T02:42:52.630Z,81.45
2017-10-20T02:43:52.629Z,80.40
2017-10-20T02:44:52.627Z,80.01
2017-10-20T02:45:52.625Z,80.11
2017-10-20T02:46:52.623Z,79.91
2017-10-20T02:47:52.624Z,79.53
2017-10-20T02:48:52.620Z,79.63
2017-10-20T02:49:52.619Z,79.63
2017-10-20T02:50:52.621Z,79.63
2017-10-20T02:51:52.618Z,80.20
2017-10-20T02:52:52.617Z,79.63
2017-10-20T02:53:52.619Z,79.34
2017-10-20T02:54:52.613Z,78.96
2017-10-20T02:55:52.614Z,78.57
2017-10-20T02:56:52.609Z,78.47
2017-10-20T02:57:52.608Z,77.90
2017-10-20T02:58:52.602Z,78.19
2017-10-20T02:59:52.601Z,78.47
2017-10-20T03:00:52.597Z,79.44
2017-10-20T03:01:52.596Z,79.63
2017-10-20T03:02:52.596Z,79.34
2017-10-20T03:03:52.594Z,78.57
2017-10-20T03:04:52.591Z,78.57
2017-10-20T03:05:52.589Z,79.05
2017-10-20T03:06:52.598Z,78.67
2017-10-20T03:07:52.589Z,78.38
2017-10-20T03:08:52.587Z,78.86
2017-10-20T03:09:52.586Z,79.24
2017-10-20T03:10:52.588Z,78.96
2017-10-20T03:11:52.582Z,78.77
2017-10-20T03:12:52.583Z,78.38
2017-10-20T03:13:52.578Z,78.00
2017-10-20T03:14:52.573Z,77.33
2017-10-20T03:15:52.572Z,77.23
2017-10-20T03:16:52.568Z,76.56
2017-10-20T03:17:52.568Z,76.27
2017-10-20T03:18:52.567Z,76.75
2017-10-20T03:19:52.564Z,76.37
2017-10-20T03:20:52.563Z,76.94
2017-10-20T03:21:52.559Z,76.27
2017-10-20T03:22:52.563Z,75.89
2017-10-20T03:23:52.562Z,75.70
2017-10-20T03:24:52.560Z,75.21
2017-10-20T03:25:52.558Z,75.02
2017-10-20T03:26:52.557Z,75.12
2017-10-20T03:27:52.556Z,74.48
2017-10-20T03:28:52.552Z,74.48
2017-10-20T03:29:52.552Z,74.29
2017-10-20T03:30:52.547Z,74.58
2017-10-20T03:31:52.543Z,74.10
2017-10-20T03:32:52.543Z,74.58
2017-10-20T03:33:52.540Z,73.72
2017-10-20T03:34:52.538Z,73.81
2017-10-20T03:35:52.539Z,73.52
2017-10-20T03:36:52.536Z,73.52
2017-10-20T03:37:52.535Z,73.52
2017-10-20T03:38:52.552Z,72.95
2017-10-20T03:39:52.535Z,72.95
2017-10-20T03:40:52.535Z,72.75
2017-10-20T03:41:52.532Z,72.95
2017-10-20T03:42:52.530Z,72.28
2017-10-20T03:43:52.530Z,72.28
2017-10-20T03:44:52.528Z,72.18
2017-10-20T03:45:52.527Z,71.31
2017-10-20T03:46:52.521Z,71.31
2017-10-20T03:47:52.519Z,71.61
2017-10-20T03:48:52.523Z,71.51
2017-10-20T03:49:52.517Z,71.61
2017-10-20T03:50:52.516Z,71.16
2017-10-20T03:51:52.516Z,71.25
2017-10-20T03:52:52.512Z,70.58
2017-10-20T03:53:52.511Z,70.58
2017-10-20T03:54:52.514Z,70.68
2017-10-20T03:55:52.512Z,70.01
2017-10-20T03:56:52.511Z,70.10
2017-10-20T03:57:52.509Z,70.29
2017-10-20T03:58:52.509Z,70.29
2017-10-20T03:59:52.506Z,69.72
2017-10-20T04:00:52.505Z,69.62
2017-10-20T04:01:52.510Z,69.53
2017-10-20T04:02:52.498Z,69.72
2017-10-20T04:03:52.498Z,69.72
2017-10-20T04:04:52.496Z,69.72
2017-10-20T04:05:52.495Z,69.34
2017-10-20T04:06:52.494Z,69.53
2017-10-20T04:07:52.492Z,69.91
2017-10-20T04:08:52.489Z,69.81
2017-10-20T04:09:52.488Z,69.53
2017-10-20T04:10:52.492Z,70.01
2017-10-20T04:11:52.491Z,70.20
2017-10-20T04:12:52.487Z,70.39
2017-10-20T04:13:52.487Z,70.58
2017-10-20T04:14:52.482Z,70.49
2017-10-20T04:15:52.482Z,70.36
2017-10-20T04:16:52.480Z,70.74
2017-10-20T04:17:52.479Z,70.93
2017-10-20T04:18:52.482Z,70.93
2017-10-20T04:19:52.481Z,71.16
2017-10-20T04:20:52.478Z,71.12
2017-10-20T04:21:52.478Z,71.55
2017-10-20T04:22:52.477Z,71.61
2017-10-20T04:23:52.475Z,71.51
2017-10-20T04:24:52.474Z,71.98
2017-10-20T04:25:52.472Z,71.80
2017-10-20T04:26:52.466Z,72.75
2017-10-20T04:27:52.467Z,72.47
2017-10-20T04:28:52.464Z,73.04
2017-10-20T04:29:52.463Z,73.33
2017-10-20T04:30:52.462Z,73.81
2017-10-20T04:31:52.462Z,73.43
2017-10-20T04:32:52.458Z,74.48
2017-10-20T04:33:52.458Z,75.35
2017-10-20T04:34:52.461Z,76.31
2017-10-20T04:35:52.459Z,76.75
2017-10-20T04:36:52.456Z,76.56
2017-10-20T04:37:52.456Z,77.80
2017-10-20T04:38:52.454Z,77.71
2017-10-20T04:39:52.453Z,78.67
2017-10-20T04:40:52.451Z,79.05
2017-10-20T04:41:52.451Z,79.63
2017-10-20T04:42:52.444Z,80.55
2017-10-20T04:43:52.443Z,83.33
2017-10-20T04:44:52.440Z,84.44
2017-10-20T04:45:52.438Z,86.83
2017-10-20T04:46:52.437Z,88.61
2017-10-20T04:47:52.436Z,89.95
2017-10-20T04:48:52.433Z,92.15
2017-10-20T04:49:52.431Z,93.54
2017-10-20T04:50:52.433Z,94.89
2017-10-20T04:51:52.430Z,95.61
2017-10-20T04:52:52.427Z,96.27
2017-10-20T04:53:52.425Z,97.80
2017-10-20T04:54:52.421Z,98.09
2017-10-20T04:55:52.419Z,98.66
2017-10-20T04:56:52.417Z,99.52
2017-10-20T04:57:52.412Z,99.99
2017-10-20T04:58:52.409Z,99.99
2017-10-20T04:59:52.419Z,99.99
2017-10-20T05:00:52.399Z,99.99
2017-10-20T05:01:52.395Z,99.99
2017-10-20T05:02:52.394Z,99.99
2017-10-20T05:03:52.390Z,99.99
2017-10-20T05:04:52.387Z,99.99
2017-10-20T05:05:52.383Z,99.99
2017-10-20T05:06:52.384Z,99.99
2017-10-20T05:07:52.381Z,99.99
2017-10-20T05:08:52.379Z,99.99
2017-10-20T05:09:52.375Z,99.99
2017-10-20T05:10:52.371Z,99.99
2017-10-20T05:11:52.367Z,99.99
2017-10-20T05:12:52.364Z,99.99
2017-10-20T05:13:52.363Z,99.99
2017-10-20T05:14:52.354Z,99.99
2017-10-20T05:15:52.355Z,99.99
2017-10-20T05:16:52.346Z,99.99
2017-10-20T05:17:52.342Z,99.99
2017-10-20T05:18:52.343Z,99.99
2017-10-20T05:19:52.339Z,99.99
2017-10-20T05:20:52.334Z,99.99
2017-10-20T05:21:52.332Z,99.99
2017-10-20T05:22:52.325Z,99.99
2017-10-20T05:23:52.320Z,99.99
2017-10-20T05:24:52.317Z,99.99
2017-10-20T05:25:52.326Z,99.99
2017-10-20T05:26:52.309Z,99.99
2017-10-20T05:27:52.313Z,99.99
2017-10-20T05:28:52.302Z,99.99
2017-10-20T05:29:52.298Z,99.99
2017-10-20T05:30:52.300Z,99.99
2017-10-20T05:31:52.297Z,99.99
2017-10-20T05:32:52.292Z,99.99
2017-10-20T05:33:52.287Z,99.99
2017-10-20T05:34:52.284Z,99.99
2017-10-20T05:35:52.281Z,99.99
2017-10-20T05:36:52.276Z,99.99
2017-10-20T05:37:52.273Z,99.99
2017-10-20T05:38:52.265Z,99.99
2017-10-20T05:39:52.261Z,99.99
2017-10-20T05:40:52.257Z,99.99
2017-10-20T05:41:52.253Z,99.99
2017-10-20T05:42:52.250Z,99.99
2017-10-20T05:43:52.246Z,99.99
2017-10-20T05:44:52.243Z,99.99
2017-10-20T05:45:52.236Z,99.99
2017-10-20T05:46:52.238Z,99.99
2017-10-20T05:47:52.234Z,99.99
2017-10-20T05:48:52.229Z,99.99
2017-10-20T05:49:52.226Z,99.99
2017-10-20T05:50:52.223Z,99.99
2017-10-20T05:51:52.217Z,99.99
2017-10-20T05:52:52.214Z,99.99
2017-10-20T05:53:52.210Z,99.99
2017-10-20T05:54:52.206Z,99.99
2017-10-20T05:55:52.197Z,99.99
2017-10-20T05:56:52.193Z,99.99
2017-10-20T05:57:52.189Z,99.99
2017-10-20T05:58:52.187Z,99.99
2017-10-20T05:59:52.183Z,99.99
2017-10-20T06:00:52.176Z,99.99
2017-10-20T06:01:52.173Z,99.99
2017-10-20T06:02:52.174Z,99.99
2017-10-20T06:03:52.170Z,99.99
2017-10-20T06:04:52.166Z,99.99
2017-10-20T06:05:52.162Z,99.99
2017-10-20T06:06:52.157Z,99.99
2017-10-20T06:07:52.154Z,99.99
2017-10-20T06:08:52.153Z,99.99
2017-10-20T06:09:52.146Z,99.99
2017-10-20T06:10:52.137Z,99.99
2017-10-20T06:11:52.133Z,99.99
2017-10-20T06:12:52.132Z,99.99
2017-10-20T06:13:52.126Z,99.99
2017-10-20T06:14:52.126Z,99.99
2017-10-20T06:15:52.118Z,99.99
2017-10-20T06:16:52.113Z,99.99
2017-10-20T06:17:52.110Z,99.99
2017-10-20T06:18:52.113Z,99.99
2017-10-20T06:19:52.105Z,99.99
2017-10-20T06:20:52.102Z,99.99
2017-10-20T06:21:52.098Z,99.99
2017-10-20T06:22:52.090Z,99.99
2017-10-20T06:23:52.088Z,99.99
2017-10-20T06:24:52.082Z,99.99
2017-10-20T06:25:52.077Z,99.99
2017-10-20T06:26:52.080Z,99.99
2017-10-20T06:27:52.075Z,99.99
2017-10-20T06:28:52.071Z,99.99
2017-10-20T06:29:52.067Z,99.99
2017-10-20T06:30:52.064Z,99.99
2017-10-20T06:31:52.060Z,99.99
2017-10-20T06:32:52.054Z,99.99
2017-10-20T06:33:52.051Z,99.99
2017-10-20T06:34:52.043Z,99.99
2017-10-20T06:35:52.041Z,99.99
2017-10-20T06:36:52.036Z,99.99
2017-10-20T06:37:52.033Z,99.99
2017-10-20T06:38:52.035Z,99.99
2017-10-20T06:39:52.025Z,99.99
2017-10-20T06:40:52.021Z,99.99
2017-10-20T06:41:52.017Z,99.99
2017-10-20T06:42:52.019Z,99.99
2017-10-20T06:43:52.015Z,99.99
2017-10-20T06:44:52.014Z,99.99
2017-10-20T06:45:52.006Z,99.99
2017-10-20T06:46:52.002Z,99.99
2017-10-20T06:47:51.999Z,99.99
2017-10-20T06:48:51.994Z,99.99
2017-10-20T06:49:51.992Z,99.99
2017-10-20T06:50:51.983Z,99.99
2017-10-20T06:51:51.981Z,99.99
2017-10-20T06:52:51.976Z,99.99
2017-10-20T06:53:51.974Z,99.99
2017-10-20T06:54:51.968Z,99.99
2017-10-20T06:55:51.966Z,99.99
2017-10-20T06:56:51.959Z,99.99
2017-10-20T06:57:51.957Z,99.99
2017-10-20T06:58:51.958Z,99.99
2017-10-20T06:59:51.955Z,99.99
2017-10-20T07:00:51.952Z,99.99
2017-10-20T07:01:51.949Z,99.99
2017-10-20T07:02:51.944Z,99.99
2017-10-20T07:03:51.940Z,99.99
2017-10-20T07:04:51.937Z,99.99
2017-10-20T07:05:51.933Z,99.99
2017-10-20T07:06:51.925Z,99.99
2017-10-20T07:07:51.923Z,99.99
2017-10-20T07:08:51.920Z,99.99
2017-10-20T07:09:51.915Z,99.99
2017-10-20T07:10:51.911Z,99.99
2017-10-20T07:11:51.909Z,99.99
2017-10-20T07:12:51.904Z,99.99
2017-10-20T07:13:51.903Z,99.99
2017-10-20T07:14:51.902Z,99.99
2017-10-20T07:15:51.899Z,99.99
2017-10-20T07:16:51.897Z,99.99
2017-10-20T07:17:51.898Z,99.99
2017-10-20T07:18:51.892Z,99.99
2017-10-20T07:19:51.894Z,99.99
2017-10-20T07:20:51.883Z,99.99
2017-10-20T07:21:51.884Z,99.99
2017-10-20T07:22:51.876Z,99.99
2017-10-20T07:23:51.873Z,99.99
2017-10-20T07:24:51.869Z,99.99
2017-10-20T07:25:51.865Z,99.99
2017-10-20T07:26:51.863Z,99.99
2017-10-20T07:27:51.860Z,99.99
2017-10-20T07:28:51.856Z,99.99
2017-10-20T07:29:51.854Z,99.99
2017-10-20T07:30:51.863Z,99.99
2017-10-20T07:31:51.851Z,99.99
2017-10-20T07:32:51.848Z,99.99
2017-10-20T07:33:51.845Z,99.99
2017-10-20T07:34:51.843Z,99.99
2017-10-20T07:35:51.841Z,99.99
2017-10-20T07:36:51.843Z,99.99
2017-10-20T07:37:51.834Z,99.99
2017-10-20T07:38:51.827Z,99.99
2017-10-20T07:39:51.824Z,99.99
2017-10-20T07:40:51.821Z,99.99
2017-10-20T07:41:51.816Z,99.99
2017-10-20T07:42:51.815Z,99.99
2017-10-20T07:43:51.825Z,99.99
2017-10-20T07:44:51.807Z,99.99
2017-10-20T07:45:51.804Z,99.99
2017-10-20T07:46:51.805Z,99.99
2017-10-20T07:47:51.803Z,99.99
2017-10-20T07:48:51.800Z,99.99
2017-10-20T07:49:51.798Z,99.99
2017-10-20T07:50:51.794Z,99.99
2017-10-20T07:51:51.790Z,99.99
2017-10-20T07:52:51.786Z,99.99
2017-10-20T07:53:51.782Z,99.99
2017-10-20T07:54:51.775Z,99.99
2017-10-20T07:55:51.775Z,99.99
2017-10-20T07:56:51.768Z,99.99
2017-10-20T07:57:51.767Z,99.99
2017-10-20T07:58:51.766Z,99.99
2017-10-20T07:59:51.765Z,99.99
2017-10-20T08:00:51.757Z,99.99
2017-10-20T08:01:51.753Z,99.99
2017-10-20T08:02:51.757Z,99.99
2017-10-20T08:03:51.751Z,99.99
2017-10-20T08:04:51.747Z,99.99
2017-10-20T08:05:51.746Z,99.99
2017-10-20T08:06:51.742Z,99.99
2017-10-20T08:07:51.739Z,99.99
2017-10-20T08:08:51.759Z,99.99
2017-10-20T08:09:51.731Z,99.99
2017-10-20T08:10:51.725Z,99.99
2017-10-20T08:11:51.722Z,99.99
2017-10-20T08:12:51.718Z,99.99
2017-10-20T08:13:51.715Z,99.99
2017-10-20T08:14:51.712Z,99.99
2017-10-20T08:15:51.713Z,99.99
2017-10-20T08:16:51.704Z,99.99
2017-10-20T08:17:51.702Z,99.99
2017-10-20T08:18:51.703Z,99.99
2017-10-20T08:19:51.701Z,99.99
2017-10-20T08:20:51.698Z,99.99
2017-10-20T08:21:51.693Z,99.99
2017-10-20T08:22:51.690Z,99.99
2017-10-20T08:23:51.687Z,99.99
2017-10-20T08:24:51.684Z,99.99
2017-10-20T08:25:51.705Z,99.99
2017-10-20T08:26:51.675Z,99.99
2017-10-20T08:27:51.673Z,99.99
2017-10-20T08:28:51.667Z,99.99
2017-10-20T08:29:51.664Z,99.99
2017-10-20T08:30:51.674Z,99.99
2017-10-20T08:31:51.664Z,99.99
2017-10-20T08:32:51.660Z,99.99
2017-10-20T08:33:51.657Z,99.99
2017-10-20T08:34:51.650Z,99.99
2017-10-20T08:35:51.647Z,99.99
2017-10-20T08:36:51.683Z,99.99
2017-10-20T08:37:51.640Z,99.99
2017-10-20T08:38:51.638Z,99.99
2017-10-20T08:39:51.638Z,99.99
2017-10-20T08:40:51.632Z,99.99
2017-10-20T08:41:51.628Z,99.99
2017-10-20T08:42:51.632Z,99.99
2017-10-20T08:43:51.630Z,99.99
2017-10-20T08:44:51.628Z,99.99
2017-10-20T08:45:51.620Z,99.99
2017-10-20T08:46:51.617Z,99.99
2017-10-20T08:47:51.614Z,99.99
2017-10-20T08:48:51.611Z,99.99
2017-10-20T08:49:51.606Z,99.99
2017-10-20T08:50:51.599Z,99.99
2017-10-20T08:51:51.597Z,99.99
2017-10-20T08:52:51.593Z,99.99
2017-10-20T08:53:51.591Z,99.99
2017-10-20T08:54:51.591Z,99.99
2017-10-20T08:55:51.584Z,99.99
2017-10-20T08:56:51.581Z,99.99
2017-10-20T08:57:51.579Z,99.99
2017-10-20T08:58:51.579Z,99.99
2017-10-20T08:59:51.576Z,99.99
2017-10-20T09:00:51.574Z,99.99
2017-10-20T09:01:51.571Z,99.99
2017-10-20T09:02:51.574Z,99.99
2017-10-20T09:03:51.570Z,99.99
2017-10-20T09:04:51.562Z,99.99
2017-10-20T09:05:51.564Z,99.99
2017-10-20T09:06:51.553Z,99.99
2017-10-20T09:07:51.551Z,99.99
2017-10-20T09:08:51.545Z,99.99
2017-10-20T09:09:51.547Z,99.99
2017-10-20T09:10:51.543Z,99.99
2017-10-20T09:11:51.538Z,99.99
2017-10-20T09:12:51.534Z,99.99
2017-10-20T09:13:51.532Z,99.99
2017-10-20T09:14:51.534Z,99.99
2017-10-20T09:15:51.533Z,99.99
2017-10-20T09:16:51.529Z,99.98
2017-10-20T09:17:51.533Z,96.66
2017-10-20T09:18:51.527Z,93.09
2017-10-20T09:19:51.523Z,90.20
2017-10-20T09:20:51.520Z,87.30
2017-10-20T09:21:51.521Z,85.02
2017-10-20T09:22:51.516Z,83.85
2017-10-20T09:23:51.516Z,80.16
2017-10-20T09:24:51.516Z,79.37
2017-10-20T09:25:51.517Z,77.67
2017-10-20T09:26:51.518Z,73.89
2017-10-20T09:27:51.521Z,73.09
2017-10-20T09:28:51.522Z,72.58
2017-10-20T09:29:51.524Z,70.03
2017-10-20T09:30:51.532Z,68.93
2017-10-20T09:31:51.534Z,68.32
2017-10-20T09:32:51.538Z,67.15
2017-10-20T09:33:51.549Z,66.37
2017-10-20T09:34:51.541Z,66.08
2017-10-20T09:35:51.547Z,65.63
2017-10-20T09:36:51.581Z,64.53
2017-10-20T09:37:51.556Z,65.56
2017-10-20T09:38:51.567Z,64.62
2017-10-20T09:39:51.577Z,62.78
2017-10-20T09:40:51.575Z,62.10
2017-10-20T09:41:51.584Z,62.81
2017-10-20T09:42:51.593Z,61.65
2017-10-20T09:43:51.594Z,62.40
2017-10-20T09:44:51.602Z,63.08
2017-10-20T09:45:51.607Z,64.40
2017-10-20T09:46:51.609Z,64.69
2017-10-20T09:47:51.617Z,64.79
2017-10-20T09:48:51.623Z,63.98
2017-10-20T09:49:51.630Z,63.34
2017-10-20T09:50:51.638Z,65.11
2017-10-20T09:51:51.646Z,65.43
2017-10-20T09:52:51.652Z,66.91
2017-10-20T09:53:51.662Z,67.66
2017-10-20T09:54:51.670Z,69.10
2017-10-20T09:55:51.677Z,69.87
2017-10-20T09:56:51.682Z,72.49
2017-10-20T09:57:51.690Z,74.40
2017-10-20T09:58:51.696Z,74.72
2017-10-20T09:59:51.702Z,74.93
2017-10-20T10:00:51.708Z,74.74
2017-10-20T10:01:51.715Z,76.15
2017-10-20T10:02:51.716Z,78.36
2017-10-20T10:03:51.721Z,78.92
2017-10-20T10:04:51.726Z,77.86
2017-10-20T10:05:51.732Z,76.78
2017-10-20T10:06:51.738Z,76.26
2017-10-20T10:07:51.742Z,76.57
2017-10-20T10:08:51.747Z,74.95
2017-10-20T10:09:51.760Z,72.09
2017-10-20T10:10:51.787Z,72.61
2017-10-20T10:11:51.766Z,70.36
2017-10-20T10:12:51.771Z,70.42
2017-10-20T10:13:51.776Z,70.74
2017-10-20T10:14:51.783Z,71.58
2017-10-20T10:15:51.788Z,71.89
2017-10-20T10:16:51.792Z,71.53
2017-10-20T10:17:51.798Z,73.13
2017-10-20T10:18:51.800Z,73.90
2017-10-20T10:19:51.803Z,74.14
2017-10-20T10:20:51.807Z,72.09
2017-10-20T10:21:51.812Z,69.93
2017-10-20T10:22:51.817Z,68.71
2017-10-20T10:23:51.822Z,67.88
2017-10-20T10:24:51.827Z,67.43
2017-10-20T10:25:51.832Z,66.88
2017-10-20T10:26:51.841Z,67.21
2017-10-20T10:27:51.854Z,64.43
2017-10-20T10:28:51.852Z,63.21
2017-10-20T10:29:51.857Z,62.72
2017-10-20T10:30:51.863Z,60.63
2017-10-20T10:31:51.869Z,60.71
2017-10-20T10:32:51.874Z,61.60
2017-10-20T10:33:51.880Z,61.40
2017-10-20T10:34:51.884Z,61.77
2017-10-20T10:35:51.890Z,61.57
2017-10-20T10:36:51.894Z,62.15
2017-10-20T10:37:51.899Z,62.05
2017-10-20T10:38:51.912Z,64.37
2017-10-20T10:39:51.925Z,62.40
2017-10-20T10:40:51.924Z,60.95
2017-10-20T10:41:51.930Z,60.14
2017-10-20T10:42:51.932Z,58.95
2017-10-20T10:43:51.938Z,58.89
2017-10-20T10:44:51.946Z,59.56
2017-10-20T10:45:51.952Z,59.70
2017-10-20T10:46:51.959Z,60.77
2017-10-20T10:47:51.970Z,61.35
2017-10-20T10:48:51.971Z,62.90
2017-10-20T10:49:51.978Z,63.82
2017-10-20T10:50:51.989Z,63.98
2017-10-20T10:51:51.996Z,64.92
2017-10-20T10:52:52.000Z,65.17
2017-10-20T10:53:52.008Z,66.30
2017-10-20T10:54:52.015Z,66.78
2017-10-20T10:55:52.020Z,65.30
2017-10-20T10:56:52.025Z,65.94
2017-10-20T10:57:52.030Z,66.71
2017-10-20T10:58:52.031Z,66.46
2017-10-20T10:59:52.038Z,65.59
2017-10-20T11:00:52.041Z,65.47
2017-10-20T11:01:52.045Z,63.60
2017-10-20T11:02:52.050Z,62.25
2017-10-20T11:03:52.056Z,61.44
2017-10-20T11:04:52.060Z,60.14
2017-10-20T11:05:52.066Z,58.76
2017-10-20T11:06:52.079Z,58.45
2017-10-20T11:07:52.081Z,58.22
2017-10-20T11:08:52.088Z,58.48
2017-10-20T11:09:52.090Z,58.29
2017-10-20T11:10:52.097Z,59.48
2017-10-20T11:11:52.102Z,60.06
2017-10-20T11:12:52.106Z,60.42
2017-10-20T11:13:52.112Z,61.10
2017-10-20T11:14:52.112Z,61.25
2017-10-20T11:15:52.117Z,62.60
2017-10-20T11:16:52.122Z,62.74
2017-10-20T11:17:52.127Z,64.08
2017-10-20T11:18:52.133Z,64.92
2017-10-20T11:19:52.136Z,65.75
2017-10-20T11:20:52.139Z,66.71
2017-10-20T11:21:52.144Z,66.52
2017-10-20T11:22:52.153Z,66.52
2017-10-20T11:23:52.155Z,66.91
2017-10-20T11:24:52.158Z,67.10
2017-10-20T11:25:52.162Z,67.10
2017-10-20T11:26:52.190Z,66.91
2017-10-20T11:27:52.169Z,67.68
2017-10-20T11:28:52.171Z,68.09
2017-10-20T11:29:52.173Z,68.25
2017-10-20T11:30:52.171Z,68.25
2017-10-20T11:31:52.175Z,68.25
2017-10-20T11:32:52.176Z,67.32
2017-10-20T11:33:52.180Z,68.60
2017-10-20T11:34:52.182Z,69.18
2017-10-20T11:35:52.185Z,69.56
2017-10-20T11:36:52.186Z,69.27
2017-10-20T11:37:52.188Z,68.41
2017-10-20T11:38:52.204Z,69.75
2017-10-20T11:39:52.196Z,69.18
2017-10-20T11:40:52.197Z,70.14
2017-10-20T11:41:52.199Z,70.14
2017-10-20T11:42:52.205Z,70.14
2017-10-20T11:43:52.211Z,70.33
2017-10-20T11:44:52.199Z,69.75
2017-10-20T11:45:52.202Z,69.75
2017-10-20T11:46:52.207Z,70.04
2017-10-20T11:47:52.209Z,69.95
2017-10-20T11:48:52.237Z,71.39
2017-10-20T11:49:52.211Z,71.00
2017-10-20T11:50:52.213Z,71.19
2017-10-20T11:51:52.214Z,71.42
2017-10-20T11:52:52.214Z,71.52
2017-10-20T11:53:52.216Z,70.65
2017-10-20T11:54:52.214Z,69.79
2017-10-20T11:55:52.215Z,69.27
2017-10-20T11:56:52.214Z,69.31
2017-10-20T11:57:52.222Z,69.02
2017-10-20T11:58:52.217Z,68.63
2017-10-20T11:59:52.219Z,68.83
2017-10-20T12:00:52.220Z,68.15
2017-10-20T12:01:52.221Z,67.77
2017-10-20T12:02:52.226Z,67.48
2017-10-20T12:03:52.228Z,68.21
2017-10-20T12:04:52.226Z,67.93
2017-10-20T12:05:52.228Z,68.60
2017-10-20T12:06:52.230Z,68.18
2017-10-20T12:07:52.231Z,68.37
2017-10-20T12:08:52.234Z,68.47
2017-10-20T12:09:52.233Z,69.24
2017-10-20T12:10:52.231Z,68.28
2017-10-20T12:11:52.230Z,69.24
2017-10-20T12:12:52.231Z,69.34
2017-10-20T12:13:52.232Z,68.47
2017-10-20T12:14:52.232Z,68.37
2017-10-20T12:15:52.235Z,68.53
2017-10-20T12:16:52.235Z,68.53
2017-10-20T12:17:52.236Z,68.47
2017-10-20T12:18:52.241Z,68.28
2017-10-20T12:19:52.241Z,68.66
2017-10-20T12:20:52.241Z,69.43
2017-10-20T12:21:52.247Z,68.53
2017-10-20T12:22:52.243Z,69.30
2017-10-20T12:23:52.244Z,69.87
2017-10-20T12:24:52.246Z,69.91
2017-10-20T12:25:52.244Z,70.39
2017-10-20T12:26:52.250Z,70.49
2017-10-20T12:27:52.241Z,70.17
2017-10-20T12:28:52.241Z,69.87
2017-10-20T12:29:52.241Z,69.78
2017-10-20T12:30:52.242Z,70.07
2017-10-20T12:31:52.244Z,70.17
2017-10-20T12:32:52.242Z,70.64
2017-10-20T12:33:52.242Z,69.84
2017-10-20T12:34:52.248Z,69.74
2017-10-20T12:35:52.249Z,69.84
2017-10-20T12:36:52.247Z,70.61
2017-10-20T12:37:52.254Z,70.42
2017-10-20T12:38:52.248Z,70.23
2017-10-20T12:39:52.247Z,70.42
2017-10-20T12:40:52.247Z,70.51
2017-10-20T12:41:52.246Z,70.61
2017-10-20T12:42:52.243Z,70.36
2017-10-20T12:43:52.244Z,70.23
2017-10-20T12:44:52.248Z,70.51
2017-10-20T12:45:52.242Z,70.99
2017-10-20T12:46:52.251Z,71.19
2017-10-20T12:47:52.247Z,70.90
2017-10-20T12:48:52.246Z,70.36
2017-10-20T12:49:52.244Z,70.32
2017-10-20T12:50:52.241Z,70.55
2017-10-20T12:51:52.243Z,70.55
2017-10-20T12:52:52.241Z,70.64